Detall de PIREP

Printer-friendly versionPDF version

[2017/02/04 09:49:00]
Flight IATA:CT3409
Pilot Number:012
Company ICAO:CAT
Aircraft Type:MD11/E
PAX:132
Aircraft Registration:PAX
Departing Airport: LSGG
Destination Airport: LEBL
Alternate Airport:LEPA
Online: VATSIM
Route:BALSI UY16 KURIR UY23 MTL UZ38 PPG B384 ALBER
Flight Level:F350
No Slew and time accel
No pause
Crash detect
Detect pilot in Cockpit between each 30 and 45 minutes
09:49 Zero fuel Weight: 342163 Lbs, Fuel Weight: 37837 Lbs
09:49 VATSIM:LSGG 040920Z 31004KT 280V350 9999 FEW010 BKN025 04/03 Q1003 NOSIG
09:49 VATSIM:LEBL 040930Z 24022KT 9999 SCT050 16/11 Q1011 NOSIG
09:50 Parking Brakes off
09:56 Take-off
09:56 Take off Weight: 378887 Lbs
09:56 Wind: 318º @ 004 Knots Heading: 221º
09:56 POS N46º 14´ 24´´ E006º 06´ 41´´
09:56 Gear Up: 198 Knots
09:56 Flaps:3 at 198 Knots
09:57 Flaps:1 at 243 Knots
09:57 Flaps:3 at 245 Knots
09:57 Flaps:2 at 248 Knots
09:57 Flaps:1 at 249 Knots
09:57 Flaps:0 at 250 Knots
10:09 TOC
10:09 Fuel Weight: 29304 Lb
10:11 Wind:253º@069 Knots Heading: 181º Ground Speed: 450 Knots Altitude 34708 ft
10:26 Wind:283º@085 Knots Heading: 224º Ground Speed: 435 Knots Altitude 34865 ft
10:32 TOD
10:32 Fuel Weight: 23602 Lb
10:41 Wind:282º@069 Knots Heading: 199º Ground Speed: 408 Knots Altitude 19586 ft
10:43 Flaps:1 at 284 Knots
10:44 Flaps:2 at 238 Knots
10:44 Flaps:3 at 233 Knots
10:45 Gear Down: 231 Knots
10:50 Flaps:4 at 219 Knots
10:50 Flaps:3 at 217 Knots
10:50 Flaps:4 at 216 Knots
10:50 Flaps:5 at 214 Knots
10:50 Flaps:6 at 211 Knots
10:51 Flaps:7 at 195 Knots
10:51 Flaps:6 at 195 Knots
10:54 Flaps:5 at 211 Knots
10:54 Flaps:4 at 223 Knots
10:54 Flaps:5 at 221 Knots
10:54 Flaps:6 at 214 Knots
10:54 Flaps:5 at 213 Knots
10:54 Flaps:6 at 212 Knots
10:55 Flaps:7 at 188 Knots
10:56 Wind:239º@019 Knots Heading: 244º Ground Speed: 157 Knots Altitude 977 ft
10:57 TouchDown:Rate -316 ft/min Speed: 159 Knots
10:57 VATSIM:LEBL 041000Z 24019KT 9999 SCT055 16/10 Q1012 NOSIG
10:57 Land
10:57 Wind:239º@019 Knots
10:57 Heading: 248º
10:57 Flight Duration: 01:01
10:57 Landing Weight: 360506 Lbs
10:57 POS N41º 17´ 54´´ E002º 04´ 57´´
11:01 Parking brakes on
11:01 Block to Block Duration: 01:11
11:01 Final Fuel: 17815 Lbls
11:01 Spent Fuel: 20022 Lbls
11:01 Flight Length: 373 NM
11:01 TOD Land Length: 127 NM

Exportar CSV

Powered by Drupal - Modified by Danger4k